sensor_id;sensor_type;location;lat;lon;timestamp;pressure;altitude;pressure_sealevel;temperature;humidity
24825;BME280;12910;57.690;11.974;2023-02-23T00:01:21;100513.03;;;2.43;100.00
24825;BME280;12910;57.690;11.974;2023-02-23T00:03:48;100514.69;;;2.43;100.00
24825;BME280;12910;57.690;11.974;2023-02-23T00:06:16;100510.50;;;2.43;100.00
24825;BME280;12910;57.690;11.974;2023-02-23T00:08:42;100510.50;;;2.43;100.00
24825;BME280;12910;57.690;11.974;2023-02-23T00:11:10;100508.59;;;2.39;100.00
24825;BME280;12910;57.690;11.974;2023-02-23T00:13:36;100507.81;;;2.40;100.00
24825;BME280;12910;57.690;11.974;2023-02-23T00:16:11;100504.66;;;2.44;100.00
24825;BME280;12910;57.690;11.974;2023-02-23T00:18:41;100502.13;;;2.44;100.00
24825;BME280;12910;57.690;11.974;2023-02-23T00:21:23;100503.72;;;2.42;100.00
24825;BME280;12910;57.690;11.974;2023-02-23T00:23:54;100507.31;;;2.47;100.00
24825;BME280;12910;57.690;11.974;2023-02-23T00:26:24;100493.50;;;2.41;100.00
24825;BME280;12910;57.690;11.974;2023-02-23T00:28:52;100499.81;;;2.49;100.00
24825;BME280;12910;57.690;11.974;2023-02-23T00:31:18;100493.88;;;2.48;100.00
24825;BME280;12910;57.690;11.974;2023-02-23T00:33:50;100486.13;;;2.45;100.00
24825;BME280;12910;57.690;11.974;2023-02-23T00:36:19;100475.09;;;2.43;100.00
24825;BME280;12910;57.690;11.974;2023-02-23T00:38:45;100462.72;;;2.31;100.00
24825;BME280;12910;57.690;11.974;2023-02-23T00:41:13;100484.69;;;2.51;100.00
24825;BME280;12910;57.690;11.974;2023-02-23T00:43:41;100475.78;;;2.41;100.00
24825;BME280;12910;57.690;11.974;2023-02-23T00:46:17;100477.84;;;2.48;100.00
24825;BME280;12910;57.690;11.974;2023-02-23T00:48:43;100481.00;;;2.44;100.00
24825;BME280;12910;57.690;11.974;2023-02-23T00:51:09;100475.16;;;2.45;100.00
24825;BME280;12910;57.690;11.974;2023-02-23T00:53:35;100456.75;;;2.29;100.00
24825;BME280;12910;57.690;11.974;2023-02-23T00:56:03;100480.00;;;2.40;100.00
24825;BME280;12910;57.690;11.974;2023-02-23T00:58:30;100476.41;;;2.35;100.00
24825;BME280;12910;57.690;11.974;2023-02-23T01:00:56;100475.50;;;2.34;100.00
24825;BME280;12910;57.690;11.974;2023-02-23T01:03:27;100476.69;;;2.41;100.00
24825;BME280;12910;57.690;11.974;2023-02-23T01:05:52;100468.13;;;2.39;100.00
24825;BME280;12910;57.690;11.974;2023-02-23T01:08:20;100464.38;;;2.31;100.00
24825;BME280;12910;57.690;11.974;2023-02-23T01:10:49;100484.78;;;2.34;100.00
24825;BME280;12910;57.690;11.974;2023-02-23T01:13:20;100477.81;;;2.30;100.00
24825;BME280;12910;57.690;11.974;2023-02-23T01:15:47;100481.94;;;2.28;100.00
24825;BME280;12910;57.690;11.974;2023-02-23T01:18:15;100481.94;;;2.28;100.00
24825;BME280;12910;57.690;11.974;2023-02-23T01:20:41;100485.91;;;2.23;100.00
24825;BME280;12910;57.690;11.974;2023-02-23T01:23:07;100480.72;;;2.20;100.00
24825;BME280;12910;57.690;11.974;2023-02-23T01:25:33;100496.88;;;2.23;100.00
24825;BME280;12910;57.690;11.974;2023-02-23T01:27:59;100492.84;;;2.27;100.00
24825;BME280;12910;57.690;11.974;2023-02-23T01:30:25;100495.09;;;2.21;100.00
24825;BME280;12910;57.690;11.974;2023-02-23T01:32:50;100489.59;;;2.11;100.00
24825;BME280;12910;57.690;11.974;2023-02-23T01:35:16;100496.59;;;2.17;100.00
24825;BME280;12910;57.690;11.974;2023-02-23T01:37:42;100488.88;;;2.14;100.00
24825;BME280;12910;57.690;11.974;2023-02-23T01:40:16;100494.03;;;2.15;100.00
24825;BME280;12910;57.690;11.974;2023-02-23T01:42:52;100484.16;;;2.03;100.00
24825;BME280;12910;57.690;11.974;2023-02-23T01:45:28;100496.22;;;2.09;100.00
24825;BME280;12910;57.690;11.974;2023-02-23T01:47:58;100502.81;;;2.06;100.00
24825;BME280;12910;57.690;11.974;2023-02-23T01:50:27;100486.63;;;2.02;100.00
24825;BME280;12910;57.690;11.974;2023-02-23T01:52:55;100490.94;;;2.05;100.00
24825;BME280;12910;57.690;11.974;2023-02-23T01:55:22;100496.56;;;1.99;100.00
24825;BME280;12910;57.690;11.974;2023-02-23T01:57:59;100504.47;;;2.05;100.00
24825;BME280;12910;57.690;11.974;2023-02-23T02:00:26;100498.47;;;2.03;100.00
24825;BME280;12910;57.690;11.974;2023-02-23T02:02:52;100504.59;;;2.08;100.00
24825;BME280;12910;57.690;11.974;2023-02-23T02:05:19;100491.28;;;2.11;100.00
24825;BME280;12910;57.690;11.974;2023-02-23T02:07:46;100490.22;;;2.07;100.00
24825;BME280;12910;57.690;11.974;2023-02-23T02:10:13;100488.34;;;2.03;100.00
24825;BME280;12910;57.690;11.974;2023-02-23T02:12:42;100485.03;;;2.04;100.00
24825;BME280;12910;57.690;11.974;2023-02-23T02:15:09;100491.97;;;2.08;100.00
24825;BME280;12910;57.690;11.974;2023-02-23T02:23:48;100470.50;;;2.00;100.00
24825;BME280;12910;57.690;11.974;2023-02-23T02:28:40;100471.28;;;1.99;100.00
24825;BME280;12910;57.690;11.974;2023-02-23T02:33:57;100463.81;;;2.00;100.00
24825;BME280;12910;57.690;11.974;2023-02-23T02:39:25;100455.84;;;1.93;100.00
24825;BME280;12910;57.690;11.974;2023-02-23T02:44:52;100451.81;;;1.96;100.00
24825;BME280;12910;57.690;11.974;2023-02-23T02:50:10;100445.88;;;1.96;100.00
24825;BME280;12910;57.690;11.974;2023-02-23T02:52:44;100441.53;;;1.93;100.00
24825;BME280;12910;57.690;11.974;2023-02-23T02:55:17;100454.50;;;1.99;100.00
24825;BME280;12910;57.690;11.974;2023-02-23T02:57:49;100452.53;;;1.94;100.00
24825;BME280;12910;57.690;11.974;2023-02-23T03:00:20;100455.91;;;1.94;100.00
24825;BME280;12910;57.690;11.974;2023-02-23T03:03:05;100440.53;;;1.90;100.00
24825;BME280;12910;57.690;11.974;2023-02-23T03:05:51;100450.00;;;1.94;100.00
24825;BME280;12910;57.690;11.974;2023-02-23T03:11:39;100440.97;;;1.99;100.00
24825;BME280;12910;57.690;11.974;2023-02-23T03:14:33;100446.97;;;2.01;100.00
24825;BME280;12910;57.690;11.974;2023-02-23T03:20:36;100437.81;;;2.03;100.00
24825;BME280;12910;57.690;11.974;2023-02-23T03:26:30;100424.16;;;1.99;100.00
24825;BME280;12910;57.690;11.974;2023-02-23T03:29:27;100432.59;;;2.00;100.00
24825;BME280;12910;57.690;11.974;2023-02-23T03:35:12;100431.78;;;2.01;100.00
24825;BME280;12910;57.690;11.974;2023-02-23T03:38:41;100428.41;;;2.00;100.00
24825;BME280;12910;57.690;11.974;2023-02-23T03:41:23;100421.41;;;1.95;100.00
24825;BME280;12910;57.690;11.974;2023-02-23T03:44:14;100424.72;;;1.94;100.00
24825;BME280;12910;57.690;11.974;2023-02-23T03:47:02;100430.72;;;1.96;100.00
24825;BME280;12910;57.690;11.974;2023-02-23T03:49:48;100432.25;;;1.92;100.00
24825;BME280;12910;57.690;11.974;2023-02-23T03:52:36;100433.94;;;1.93;100.00
24825;BME280;12910;57.690;11.974;2023-02-23T03:55:27;100417.72;;;1.88;100.00
24825;BME280;12910;57.690;11.974;2023-02-23T03:58:17;100415.41;;;1.93;100.00
24825;BME280;12910;57.690;11.974;2023-02-23T04:01:04;100413.66;;;1.92;100.00
24825;BME280;12910;57.690;11.974;2023-02-23T04:03:52;100417.94;;;1.93;100.00
24825;BME280;12910;57.690;11.974;2023-02-23T04:06:41;100411.19;;;1.93;100.00
24825;BME280;12910;57.690;11.974;2023-02-23T04:09:26;100408.03;;;1.97;100.00
24825;BME280;12910;57.690;11.974;2023-02-23T04:12:14;100403.78;;;1.96;100.00
24825;BME280;12910;57.690;11.974;2023-02-23T04:15:11;100397.78;;;1.94;100.00
24825;BME280;12910;57.690;11.974;2023-02-23T04:17:38;100388.63;;;1.96;100.00
24825;BME280;12910;57.690;11.974;2023-02-23T04:20:04;100381.03;;;1.96;100.00
24825;BME280;12910;57.690;11.974;2023-02-23T04:22:31;100383.63;;;1.98;100.00
24825;BME280;12910;57.690;11.974;2023-02-23T04:24:56;100381.81;;;1.95;100.00
24825;BME280;12910;57.690;11.974;2023-02-23T04:27:22;100381.91;;;1.97;100.00
24825;BME280;12910;57.690;11.974;2023-02-23T04:29:47;100379.22;;;1.94;100.00
24825;BME280;12910;57.690;11.974;2023-02-23T04:32:15;100388.84;;;2.01;100.00
24825;BME280;12910;57.690;11.974;2023-02-23T04:34:41;100383.78;;;2.01;100.00
24825;BME280;12910;57.690;11.974;2023-02-23T04:37:07;100374.41;;;1.98;100.00
24825;BME280;12910;57.690;11.974;2023-02-23T04:39:32;100374.44;;;2.00;100.00
24825;BME280;12910;57.690;11.974;2023-02-23T04:41:58;100378.66;;;1.99;100.00
24825;BME280;12910;57.690;11.974;2023-02-23T04:44:23;100381.19;;;1.99;100.00
24825;BME280;12910;57.690;11.974;2023-02-23T04:46:49;100377.88;;;2.00;100.00
24825;BME280;12910;57.690;11.974;2023-02-23T04:49:14;100377.94;;;2.02;100.00
24825;BME280;12910;57.690;11.974;2023-02-23T04:51:39;100366.03;;;1.99;100.00
24825;BME280;12910;57.690;11.974;2023-02-23T04:54:05;100367.75;;;2.00;100.00
24825;BME280;12910;57.690;11.974;2023-02-23T04:56:31;100379.66;;;2.03;100.00
24825;BME280;12910;57.690;11.974;2023-02-23T04:58:56;100363.56;;;2.01;100.00
24825;BME280;12910;57.690;11.974;2023-02-23T05:01:21;100370.50;;;2.05;100.00
24825;BME280;12910;57.690;11.974;2023-02-23T05:03:48;100363.72;;;2.04;100.00
24825;BME280;12910;57.690;11.974;2023-02-23T05:06:14;100372.22;;;2.06;100.00
24825;BME280;12910;57.690;11.974;2023-02-23T05:08:40;100370.78;;;2.11;100.00
24825;BME280;12910;57.690;11.974;2023-02-23T05:11:06;100365.72;;;2.11;100.00
24825;BME280;12910;57.690;11.974;2023-02-23T05:13:31;100366.56;;;2.12;100.00
24825;BME280;12910;57.690;11.974;2023-02-23T05:15:57;100357.91;;;2.07;100.00
24825;BME280;12910;57.690;11.974;2023-02-23T05:18:23;100354.03;;;2.13;100.00
24825;BME280;12910;57.690;11.974;2023-02-23T05:20:49;100363.34;;;2.14;100.00
24825;BME280;12910;57.690;11.974;2023-02-23T05:23:15;100358.13;;;2.11;100.00
24825;BME280;12910;57.690;11.974;2023-02-23T05:25:40;100351.53;;;2.15;100.00
24825;BME280;12910;57.690;11.974;2023-02-23T05:28:05;100363.47;;;2.17;100.00
24825;BME280;12910;57.690;11.974;2023-02-23T05:30:31;100360.94;;;2.17;100.00
24825;BME280;12910;57.690;11.974;2023-02-23T05:32:57;100351.69;;;2.18;100.00
24825;BME280;12910;57.690;11.974;2023-02-23T05:35:22;100361.22;;;2.24;100.00
24825;BME280;12910;57.690;11.974;2023-02-23T05:37:48;100363.75;;;2.24;100.00
24825;BME280;12910;57.690;11.974;2023-02-23T05:40:13;100354.38;;;2.21;100.00
24825;BME280;12910;57.690;11.974;2023-02-23T05:42:39;100343.38;;;2.21;100.00
24825;BME280;12910;57.690;11.974;2023-02-23T05:45:05;100363.09;;;2.28;100.00
24825;BME280;12910;57.690;11.974;2023-02-23T05:47:31;100354.59;;;2.26;100.00
24825;BME280;12910;57.690;11.974;2023-02-23T05:49:59;100357.91;;;2.25;100.00
24825;BME280;12910;57.690;11.974;2023-02-23T05:52:25;100369.09;;;2.30;100.00
24825;BME280;12910;57.690;11.974;2023-02-23T05:54:50;100354.59;;;2.26;100.00
24825;BME280;12910;57.690;11.974;2023-02-23T05:57:16;100351.53;;;2.33;100.00
24825;BME280;12910;57.690;11.974;2023-02-23T05:59:41;100348.78;;;2.28;100.00
24825;BME280;12910;57.690;11.974;2023-02-23T06:02:06;100360.19;;;2.38;100.00
24825;BME280;12910;57.690;11.974;2023-02-23T06:04:32;100359.38;;;2.39;100.00
24825;BME280;12910;57.690;11.974;2023-02-23T06:06:57;100352.53;;;2.37;100.00
24825;BME280;12910;57.690;11.974;2023-02-23T06:09:23;100343.25;;;2.37;100.00
24825;BME280;12910;57.690;11.974;2023-02-23T06:11:48;100350.84;;;2.37;100.00
24825;BME280;12910;57.690;11.974;2023-02-23T06:14:14;100347.69;;;2.41;100.00
24825;BME280;12910;57.690;11.974;2023-02-23T06:16:40;100325.50;;;2.36;100.00
24825;BME280;12910;57.690;11.974;2023-02-23T06:19:09;100339.50;;;2.47;100.00
24825;BME280;12910;57.690;11.974;2023-02-23T06:21:34;100330.13;;;2.44;100.00
24825;BME280;12910;57.690;11.974;2023-02-23T06:24:00;100328.44;;;2.45;100.00
24825;BME280;12910;57.690;11.974;2023-02-23T06:26:26;100331.81;;;2.45;100.00
24825;BME280;12910;57.690;11.974;2023-02-23T06:28:52;100314.00;;;2.42;100.00
24825;BME280;12910;57.690;11.974;2023-02-23T06:31:17;100330.22;;;2.47;100.00
24825;BME280;12910;57.690;11.974;2023-02-23T06:33:42;100332.75;;;2.47;100.00
24825;BME280;12910;57.690;11.974;2023-02-23T06:36:08;100335.44;;;2.51;100.00
24825;BME280;12910;57.690;11.974;2023-02-23T06:38:34;100333.75;;;2.51;100.00
24825;BME280;12910;57.690;11.974;2023-02-23T06:41:06;100326.91;;;2.48;100.00
24825;BME280;12910;57.690;11.974;2023-02-23T06:43:31;100336.44;;;2.54;100.00
24825;BME280;12910;57.690;11.974;2023-02-23T06:45:56;100322.59;;;2.46;100.00
24825;BME280;12910;57.690;11.974;2023-02-23T06:48:22;100335.59;;;2.54;100.00
24825;BME280;12910;57.690;11.974;2023-02-23T06:50:47;100328.06;;;2.55;100.00
24825;BME280;12910;57.690;11.974;2023-02-23T06:53:12;100332.25;;;2.55;100.00
24825;BME280;12910;57.690;11.974;2023-02-23T06:55:38;100340.91;;;2.60;100.00
24825;BME280;12910;57.690;11.974;2023-02-23T06:58:03;100339.97;;;2.58;100.00
24825;BME280;12910;57.690;11.974;2023-02-23T07:00:30;100336.78;;;2.62;100.00
24825;BME280;12910;57.690;11.974;2023-02-23T07:02:55;100340.16;;;2.62;100.00
24825;BME280;12910;57.690;11.974;2023-02-23T07:05:21;100346.16;;;2.64;100.00
24825;BME280;12910;57.690;11.974;2023-02-23T07:07:47;100339.44;;;2.65;100.00
24825;BME280;12910;57.690;11.974;2023-02-23T07:10:12;100335.09;;;2.62;100.00
24825;BME280;12910;57.690;11.974;2023-02-23T07:12:37;100343.88;;;2.71;100.00
24825;BME280;12910;57.690;11.974;2023-02-23T07:15:03;100335.50;;;2.72;100.00
24825;BME280;12910;57.690;11.974;2023-02-23T07:17:29;100338.22;;;2.76;100.00
24825;BME280;12910;57.690;11.974;2023-02-23T07:19:54;100333.06;;;2.73;100.00
24825;BME280;12910;57.690;11.974;2023-02-23T07:22:19;100328.91;;;2.75;100.00
24825;BME280;12910;57.690;11.974;2023-02-23T07:24:46;100338.44;;;2.81;100.00
24825;BME280;12910;57.690;11.974;2023-02-23T07:27:12;100342.69;;;2.82;100.00
24825;BME280;12910;57.690;11.974;2023-02-23T07:29:37;100343.44;;;2.79;100.00
24825;BME280;12910;57.690;11.974;2023-02-23T07:32:04;100347.00;;;2.85;100.00
24825;BME280;12910;57.690;11.974;2023-02-23T07:34:29;100347.97;;;2.87;100.00
24825;BME280;12910;57.690;11.974;2023-02-23T07:36:54;100340.25;;;2.84;100.00
24825;BME280;12910;57.690;11.974;2023-02-23T07:39:20;100347.28;;;2.91;100.00
24825;BME280;12910;57.690;11.974;2023-02-23T07:41:45;100348.94;;;2.90;100.00
24825;BME280;12910;57.690;11.974;2023-02-23T07:44:11;100359.28;;;2.95;100.00
24825;BME280;12910;57.690;11.974;2023-02-23T07:46:36;100357.63;;;2.95;100.00
24825;BME280;12910;57.690;11.974;2023-02-23T07:49:02;100345.72;;;2.93;100.00
24825;BME280;12910;57.690;11.974;2023-02-23T07:51:27;100342.63;;;3.00;100.00
24825;BME280;12910;57.690;11.974;2023-02-23T07:53:53;100319.25;;;2.86;100.00
24825;BME280;12910;57.690;11.974;2023-02-23T07:56:19;100340.91;;;2.99;100.00
24825;BME280;12910;57.690;11.974;2023-02-23T07:58:44;100346.09;;;3.02;100.00
24825;BME280;12910;57.690;11.974;2023-02-23T08:01:10;100340.28;;;3.05;100.00
24825;BME280;12910;57.690;11.974;2023-02-23T08:03:36;100334.28;;;3.03;100.00
24825;BME280;12910;57.690;11.974;2023-02-23T08:06:03;100343.88;;;3.10;100.00
24825;BME280;12910;57.690;11.974;2023-02-23T08:08:28;100342.22;;;3.10;100.00
24825;BME280;12910;57.690;11.974;2023-02-23T08:11:01;100340.53;;;3.11;100.00
24825;BME280;12910;57.690;11.974;2023-02-23T08:13:27;100332.13;;;3.12;100.00
24825;BME280;12910;57.690;11.974;2023-02-23T08:15:53;100324.50;;;3.10;100.00
24825;BME280;12910;57.690;11.974;2023-02-23T08:18:19;100326.34;;;3.15;100.00
24825;BME280;12910;57.690;11.974;2023-02-23T08:20:44;100328.06;;;3.16;100.00
24825;BME280;12910;57.690;11.974;2023-02-23T08:23:11;100316.28;;;3.16;100.00
24825;BME280;12910;57.690;11.974;2023-02-23T08:25:36;100313.84;;;3.19;100.00
24825;BME280;12910;57.690;11.974;2023-02-23T08:28:02;100309.59;;;3.18;100.00
24825;BME280;12910;57.690;11.974;2023-02-23T08:30:29;100303.53;;;3.15;100.00
24825;BME280;12910;57.690;11.974;2023-02-23T08:32:56;100304.47;;;3.17;100.00
24825;BME280;12910;57.690;11.974;2023-02-23T08:35:21;100316.34;;;3.18;100.00
24825;BME280;12910;57.690;11.974;2023-02-23T08:37:47;100315.59;;;3.20;100.00
24825;BME280;12910;57.690;11.974;2023-02-23T08:40:12;100305.41;;;3.19;100.00
24825;BME280;12910;57.690;11.974;2023-02-23T08:42:43;100308.94;;;3.22;100.00
24825;BME280;12910;57.690;11.974;2023-02-23T08:45:10;100313.31;;;3.26;100.00
24825;BME280;12910;57.690;11.974;2023-02-23T08:47:35;100309.06;;;3.25;100.00
24825;BME280;12910;57.690;11.974;2023-02-23T08:50:01;100304.97;;;3.29;100.00
24825;BME280;12910;57.690;11.974;2023-02-23T08:52:27;100279.94;;;3.16;100.00
24825;BME280;12910;57.690;11.974;2023-02-23T08:54:53;100307.69;;;3.34;100.00
24825;BME280;12910;57.690;11.974;2023-02-23T08:57:19;100289.88;;;3.32;100.00
24825;BME280;12910;57.690;11.974;2023-02-23T08:59:45;100296.94;;;3.39;100.00
24825;BME280;12910;57.690;11.974;2023-02-23T09:02:11;100301.22;;;3.40;100.00
24825;BME280;12910;57.690;11.974;2023-02-23T09:04:38;100286.75;;;3.38;100.00
24825;BME280;12910;57.690;11.974;2023-02-23T09:07:06;100292.75;;;3.40;100.00
24825;BME280;12910;57.690;11.974;2023-02-23T09:09:32;100290.34;;;3.43;100.00
24825;BME280;12910;57.690;11.974;2023-02-23T09:11:58;100293.91;;;3.48;100.00
24825;BME280;12910;57.690;11.974;2023-02-23T09:14:24;100294.69;;;3.47;100.00
24825;BME280;12910;57.690;11.974;2023-02-23T09:16:50;100276.13;;;3.47;100.00
24825;BME280;12910;57.690;11.974;2023-02-23T09:19:15;100289.00;;;3.53;100.00
24825;BME280;12910;57.690;11.974;2023-02-23T09:21:43;100273.00;;;3.54;100.00
24825;BME280;12910;57.690;11.974;2023-02-23T09:24:08;100274.91;;;3.59;100.00
24825;BME280;12910;57.690;11.974;2023-02-23T09:26:35;100281.91;;;3.65;100.00
24825;BME280;12910;57.690;11.974;2023-02-23T09:29:06;100275.16;;;3.66;100.00
24825;BME280;12910;57.690;11.974;2023-02-23T09:31:32;100270.22;;;3.69;100.00
24825;BME280;12910;57.690;11.974;2023-02-23T09:33:58;100272.69;;;3.67;100.00
24825;BME280;12910;57.690;11.974;2023-02-23T09:36:28;100269.34;;;3.68;100.00
24825;BME280;12910;57.690;11.974;2023-02-23T09:38:55;100267.72;;;3.70;100.00
24825;BME280;12910;57.690;11.974;2023-02-23T09:49:00;100270.97;;;3.66;100.00
24825;BME280;12910;57.690;11.974;2023-02-23T09:51:26;100269.53;;;3.73;100.00
24825;BME280;12910;57.690;11.974;2023-02-23T09:53:56;100264.28;;;3.68;100.00
24825;BME280;12910;57.690;11.974;2023-02-23T09:56:32;100274.66;;;3.74;100.00
24825;BME280;12910;57.690;11.974;2023-02-23T09:59:01;100271.19;;;3.72;100.00
24825;BME280;12910;57.690;11.974;2023-02-23T10:04:32;100271.31;;;3.76;100.00
24825;BME280;12910;57.690;11.974;2023-02-23T10:17:58;100252.91;;;3.80;100.00
24825;BME280;12910;57.690;11.974;2023-02-23T10:20:37;100252.22;;;3.85;100.00
24825;BME280;12910;57.690;11.974;2023-02-23T10:23:09;100236.16;;;3.85;100.00
24825;BME280;12910;57.690;11.974;2023-02-23T10:25:42;100225.97;;;3.83;100.00
24825;BME280;12910;57.690;11.974;2023-02-23T10:28:16;100227.88;;;3.89;100.00
24825;BME280;12910;57.690;11.974;2023-02-23T10:30:44;100222.81;;;3.89;100.00
24825;BME280;12910;57.690;11.974;2023-02-23T10:35:36;100231.47;;;3.96;100.00
24825;BME280;12910;57.690;11.974;2023-02-23T10:38:02;100236.63;;;3.97;100.00
24825;BME280;12910;57.690;11.974;2023-02-23T10:40:30;100238.38;;;3.98;100.00
24825;BME280;12910;57.690;11.974;2023-02-23T10:42:59;100228.22;;;3.98;100.00
24825;BME280;12910;57.690;11.974;2023-02-23T10:45:27;100208.50;;;3.91;100.00
24825;BME280;12910;57.690;11.974;2023-02-23T10:48:05;100220.69;;;4.01;100.00
24825;BME280;12910;57.690;11.974;2023-02-23T10:50:36;100211.28;;;3.97;100.00
24825;BME280;12910;57.690;11.974;2023-02-23T10:53:17;100224.13;;;4.02;100.00
24825;BME280;12910;57.690;11.974;2023-02-23T10:56:00;100234.31;;;4.03;100.00
24825;BME280;12910;57.690;11.974;2023-02-23T10:58:26;100231.81;;;4.05;100.00
24825;BME280;12910;57.690;11.974;2023-02-23T11:00:54;100232.63;;;4.04;100.00
24825;BME280;12910;57.690;11.974;2023-02-23T11:03:24;100227.50;;;4.02;100.00
24825;BME280;12910;57.690;11.974;2023-02-23T11:05:52;100226.81;;;4.07;100.00
24825;BME280;12910;57.690;11.974;2023-02-23T11:08:33;100213.22;;;4.04;100.00
24825;BME280;12910;57.690;11.974;2023-02-23T11:11:02;100213.22;;;4.04;100.00
24825;BME280;12910;57.690;11.974;2023-02-23T11:13:40;100220.88;;;4.06;100.00
24825;BME280;12910;57.690;11.974;2023-02-23T11:16:28;100237.19;;;4.13;100.00
24825;BME280;12910;57.690;11.974;2023-02-23T11:18:57;100235.63;;;4.16;100.00
24825;BME280;12910;57.690;11.974;2023-02-23T11:21:29;100227.31;;;4.20;100.00
24825;BME280;12910;57.690;11.974;2023-02-23T11:24:05;100228.13;;;4.19;100.00
24825;BME280;12910;57.690;11.974;2023-02-23T11:26:37;100219.75;;;4.22;100.00
24825;BME280;12910;57.690;11.974;2023-02-23T11:29:21;100209.75;;;4.27;100.00
24825;BME280;12910;57.690;11.974;2023-02-23T11:31:52;100209.72;;;4.25;100.00
24825;BME280;12910;57.690;11.974;2023-02-23T11:34:27;100201.16;;;4.21;100.00
24825;BME280;12910;57.690;11.974;2023-02-23T11:39:59;100213.06;;;4.24;100.00
24825;BME280;12910;57.690;11.974;2023-02-23T11:42:30;100201.31;;;4.26;100.00
24825;BME280;12910;57.690;11.974;2023-02-23T11:45:16;100222.59;;;4.31;100.00
24825;BME280;12910;57.690;11.974;2023-02-23T11:47:48;100215.91;;;4.33;100.00
24825;BME280;12910;57.690;11.974;2023-02-23T11:50:31;100212.50;;;4.33;100.00
24825;BME280;12910;57.690;11.974;2023-02-23T11:53:45;100206.41;;;4.28;100.00
24825;BME280;12910;57.690;11.974;2023-02-23T11:55:54;100204.84;;;4.31;100.00
24825;BME280;12910;57.690;11.974;2023-02-23T12:01:03;100203.28;;;4.35;100.00
24825;BME280;12910;57.690;11.974;2023-02-23T12:03:39;100194.97;;;4.39;100.00
24825;BME280;12910;57.690;11.974;2023-02-23T12:06:09;100195.75;;;4.36;100.00
24825;BME280;12910;57.690;11.974;2023-02-23T12:08:46;100190.66;;;4.36;100.00
24825;BME280;12910;57.690;11.974;2023-02-23T12:11:20;100195.13;;;4.44;100.00
24825;BME280;12910;57.690;11.974;2023-02-23T12:14:13;100199.41;;;4.45;100.00
24825;BME280;12910;57.690;11.974;2023-02-23T12:16:45;100196.88;;;4.45;100.00
24825;BME280;12910;57.690;11.974;2023-02-23T12:19:23;100200.31;;;4.47;100.00
24825;BME280;12910;57.690;11.974;2023-02-23T12:27:17;100185.09;;;4.47;100.00
24825;BME280;12910;57.690;11.974;2023-02-23T12:32:27;100182.75;;;4.53;100.00
24825;BME280;12910;57.690;11.974;2023-02-23T12:39:55;100182.00;;;4.56;100.00
24825;BME280;12910;57.690;11.974;2023-02-23T12:42:51;100184.56;;;4.57;100.00
24825;BME280;12910;57.690;11.974;2023-02-23T12:48:17;100183.75;;;4.58;100.00
24825;BME280;12910;57.690;11.974;2023-02-23T12:50:55;100184.69;;;4.60;100.00
24825;BME280;12910;57.690;11.974;2023-02-23T12:53:31;100178.75;;;4.60;100.00
24825;BME280;12910;57.690;11.974;2023-02-23T12:56:34;100170.19;;;4.56;100.00
24825;BME280;12910;57.690;11.974;2023-02-23T12:59:37;100182.75;;;4.53;100.00
24825;BME280;12910;57.690;11.974;2023-02-23T13:02:20;100173.41;;;4.52;100.00
24825;BME280;12910;57.690;11.974;2023-02-23T13:10:34;100167.53;;;4.53;100.00
24825;BME280;12910;57.690;11.974;2023-02-23T13:21:10;100165.91;;;4.55;100.00
24825;BME280;12910;57.690;11.974;2023-02-23T13:26:20;100143.06;;;4.55;100.00
24825;BME280;12910;57.690;11.974;2023-02-23T13:29:25;100140.97;;;4.69;100.00
24825;BME280;12910;57.690;11.974;2023-02-23T13:31:53;100137.66;;;4.72;100.00
24825;BME280;12910;57.690;11.974;2023-02-23T13:34:24;100143.56;;;4.71;100.00
24825;BME280;12910;57.690;11.974;2023-02-23T13:36:51;100138.53;;;4.72;100.00
24825;BME280;12910;57.690;11.974;2023-02-23T13:50:30;100111.22;;;4.92;100.00
24825;BME280;12910;57.690;11.974;2023-02-23T13:53:04;100107.88;;;4.93;100.00
24825;BME280;12910;57.690;11.974;2023-02-23T13:55:46;100106.22;;;4.95;100.00
24825;BME280;12910;57.690;11.974;2023-02-23T13:58:18;100101.00;;;4.91;100.00
24825;BME280;12910;57.690;11.974;2023-02-23T14:01:03;100104.59;;;4.97;100.00
24825;BME280;12910;57.690;11.974;2023-02-23T14:03:32;100105.47;;;4.98;100.00
24825;BME280;12910;57.690;11.974;2023-02-23T14:06:00;100091.88;;;4.96;100.00
24825;BME280;12910;57.690;11.974;2023-02-23T14:08:37;100093.59;;;4.97;100.00
24825;BME280;12910;57.690;11.974;2023-02-23T14:11:04;100096.19;;;4.98;100.00
24825;BME280;12910;57.690;11.974;2023-02-23T14:13:34;100087.84;;;5.03;100.00
24825;BME280;12910;57.690;11.974;2023-02-23T14:16:16;100077.75;;;5.06;100.00
24825;BME280;12910;57.690;11.974;2023-02-23T14:27:19;100058.63;;;5.17;100.00
24825;BME280;12910;57.690;11.974;2023-02-23T14:32:38;100057.84;;;5.20;100.00
24825;BME280;12910;57.690;11.974;2023-02-23T14:35:04;100058.69;;;5.19;100.00
24825;BME280;12910;57.690;11.974;2023-02-23T14:37:37;100062.72;;;5.12;100.00
24825;BME280;12910;57.690;11.974;2023-02-23T14:40:17;100058.47;;;5.12;100.00
24825;BME280;12910;57.690;11.974;2023-02-23T14:42:57;100064.47;;;5.14;100.00
24825;BME280;12910;57.690;11.974;2023-02-23T14:45:28;100066.06;;;5.11;100.00
24825;BME280;12910;57.690;11.974;2023-02-23T14:47:57;100065.19;;;5.10;100.00
24825;BME280;12910;57.690;11.974;2023-02-23T14:50:34;100067.69;;;5.09;100.00
24825;BME280;12910;57.690;11.974;2023-02-23T14:53:01;100065.94;;;5.06;100.00
24825;BME280;12910;57.690;11.974;2023-02-23T14:55:30;100078.78;;;5.11;100.00